sensor_id;sensor_type;location;lat;lon;timestamp;pressure;altitude;pressure_sealevel;temperature;humidity
73918;BME280;63639;52.280;5.162;2023-02-28T00:00:12;103317.74;;;9.84;51.66
73918;BME280;63639;52.280;5.162;2023-02-28T00:02:40;103315.32;;;9.86;51.64
73918;BME280;63639;52.280;5.162;2023-02-28T00:05:09;103315.44;;;9.86;51.45
73918;BME280;63639;52.280;5.162;2023-02-28T00:07:37;103316.62;;;9.86;51.67
73918;BME280;63639;52.280;5.162;2023-02-28T00:10:07;103313.38;;;9.86;51.73
73918;BME280;63639;52.280;5.162;2023-02-28T00:12:34;103314.34;;;9.86;51.84
73918;BME280;63639;52.280;5.162;2023-02-28T00:15:01;103313.70;;;9.87;51.92
73918;BME280;63639;52.280;5.162;2023-02-28T00:17:27;103314.02;;;9.91;51.61
73918;BME280;63639;52.280;5.162;2023-02-28T00:19:59;103314.35;;;9.93;51.41
73918;BME280;63639;52.280;5.162;2023-02-28T00:22:27;103313.12;;;9.93;51.59
73918;BME280;63639;52.280;5.162;2023-02-28T00:24:54;103314.24;;;9.94;51.55
73918;BME280;63639;52.280;5.162;2023-02-28T00:27:21;103311.56;;;9.93;51.59
73918;BME280;63639;52.280;5.162;2023-02-28T00:29:48;103314.91;;;9.93;51.60
73918;BME280;63639;52.280;5.162;2023-02-28T00:32:15;103314.51;;;9.90;51.83
73918;BME280;63639;52.280;5.162;2023-02-28T00:34:42;103313.59;;;9.90;52.01
73918;BME280;63639;52.280;5.162;2023-02-28T00:37:10;103311.08;;;9.91;52.10
73918;BME280;63639;52.280;5.162;2023-02-28T00:39:37;103311.08;;;9.92;51.68
73918;BME280;63639;52.280;5.162;2023-02-28T00:42:05;103315.00;;;9.91;51.56
73918;BME280;63639;52.280;5.162;2023-02-28T00:44:32;103315.24;;;9.87;51.60
73918;BME280;63639;52.280;5.162;2023-02-28T00:47:00;103313.86;;;9.84;51.93
73918;BME280;63639;52.280;5.162;2023-02-28T00:49:27;103311.94;;;9.85;51.94
73918;BME280;63639;52.280;5.162;2023-02-28T00:51:55;103308.14;;;9.85;51.84
73918;BME280;63639;52.280;5.162;2023-02-28T00:54:23;103307.68;;;9.86;51.94
73918;BME280;63639;52.280;5.162;2023-02-28T00:56:50;103306.41;;;9.91;51.75
73918;BME280;63639;52.280;5.162;2023-02-28T00:59:17;103303.60;;;9.92;52.04
73918;BME280;63639;52.280;5.162;2023-02-28T01:01:45;103308.79;;;9.95;51.86
73918;BME280;63639;52.280;5.162;2023-02-28T01:04:13;103310.34;;;9.99;51.90
73918;BME280;63639;52.280;5.162;2023-02-28T01:06:40;103316.27;;;10.02;51.97
73918;BME280;63639;52.280;5.162;2023-02-28T01:09:07;103316.67;;;10.02;52.05
73918;BME280;63639;52.280;5.162;2023-02-28T01:11:35;103315.03;;;10.02;52.28
73918;BME280;63639;52.280;5.162;2023-02-28T01:14:03;103317.70;;;10.03;52.20
73918;BME280;63639;52.280;5.162;2023-02-28T01:16:31;103314.77;;;10.05;51.93
73918;BME280;63639;52.280;5.162;2023-02-28T01:18:57;103316.86;;;10.00;52.30
73918;BME280;63639;52.280;5.162;2023-02-28T01:21:24;103315.54;;;10.00;52.30
73918;BME280;63639;52.280;5.162;2023-02-28T01:23:51;103315.03;;;10.01;52.40
73918;BME280;63639;52.280;5.162;2023-02-28T01:26:20;103310.78;;;10.03;52.43
73918;BME280;63639;52.280;5.162;2023-02-28T01:28:48;103310.87;;;10.05;52.29
73918;BME280;63639;52.280;5.162;2023-02-28T01:31:16;103310.12;;;10.06;52.23
73918;BME280;63639;52.280;5.162;2023-02-28T01:33:43;103304.82;;;10.05;52.25
73918;BME280;63639;52.280;5.162;2023-02-28T01:36:12;103303.48;;;10.05;52.37
73918;BME280;63639;52.280;5.162;2023-02-28T01:38:39;103296.70;;;10.05;52.35
73918;BME280;63639;52.280;5.162;2023-02-28T01:41:07;103298.49;;;10.06;52.24
73918;BME280;63639;52.280;5.162;2023-02-28T01:43:55;103297.76;;;10.02;52.35
73918;BME280;63639;52.280;5.162;2023-02-28T01:46:22;103297.28;;;10.00;52.55
73918;BME280;63639;52.280;5.162;2023-02-28T01:48:52;103298.32;;;10.01;52.41
73918;BME280;63639;52.280;5.162;2023-02-28T01:51:24;103293.53;;;10.02;52.51
73918;BME280;63639;52.280;5.162;2023-02-28T01:53:56;103288.41;;;10.02;52.54
73918;BME280;63639;52.280;5.162;2023-02-28T01:56:27;103292.04;;;10.01;52.83
73918;BME280;63639;52.280;5.162;2023-02-28T01:58:56;103289.92;;;10.03;52.94
73918;BME280;63639;52.280;5.162;2023-02-28T02:01:24;103291.00;;;10.05;52.74
73918;BME280;63639;52.280;5.162;2023-02-28T02:03:55;103287.67;;;10.07;52.71
73918;BME280;63639;52.280;5.162;2023-02-28T02:06:23;103283.97;;;10.08;52.74
73918;BME280;63639;52.280;5.162;2023-02-28T02:08:51;103281.25;;;10.09;52.58
73918;BME280;63639;52.280;5.162;2023-02-28T02:11:20;103282.65;;;10.10;52.47
73918;BME280;63639;52.280;5.162;2023-02-28T02:13:59;103280.09;;;10.09;52.75
73918;BME280;63639;52.280;5.162;2023-02-28T02:16:36;103276.11;;;10.11;52.85
73918;BME280;63639;52.280;5.162;2023-02-28T02:19:18;103273.37;;;10.13;52.72
73918;BME280;63639;52.280;5.162;2023-02-28T02:22:12;103271.35;;;10.14;52.37
73918;BME280;63639;52.280;5.162;2023-02-28T02:25:03;103270.39;;;10.13;52.43
73918;BME280;63639;52.280;5.162;2023-02-28T02:30:29;103270.54;;;10.07;52.54
73918;BME280;63639;52.280;5.162;2023-02-28T02:33:16;103276.01;;;10.05;52.76
73918;BME280;63639;52.280;5.162;2023-02-28T02:35:52;103280.64;;;10.03;52.83
73918;BME280;63639;52.280;5.162;2023-02-28T02:38:30;103276.49;;;10.06;52.75
73918;BME280;63639;52.280;5.162;2023-02-28T02:41:05;103271.85;;;10.09;52.71
73918;BME280;63639;52.280;5.162;2023-02-28T02:43:38;103274.41;;;10.11;52.57
73918;BME280;63639;52.280;5.162;2023-02-28T02:46:12;103276.39;;;10.11;52.63
73918;BME280;63639;52.280;5.162;2023-02-28T02:48:41;103276.43;;;10.12;52.60
73918;BME280;63639;52.280;5.162;2023-02-28T02:51:13;103277.90;;;10.10;53.08
73918;BME280;63639;52.280;5.162;2023-02-28T02:53:44;103274.71;;;10.07;53.22
73918;BME280;63639;52.280;5.162;2023-02-28T02:56:13;103273.84;;;10.05;52.91
73918;BME280;63639;52.280;5.162;2023-02-28T02:58:42;103275.47;;;10.04;52.98
73918;BME280;63639;52.280;5.162;2023-02-28T03:01:14;103276.57;;;10.04;53.03
73918;BME280;63639;52.280;5.162;2023-02-28T03:03:42;103276.98;;;10.07;52.89
73918;BME280;63639;52.280;5.162;2023-02-28T03:06:09;103276.81;;;10.06;53.15
73918;BME280;63639;52.280;5.162;2023-02-28T03:08:37;103278.36;;;10.08;53.03
73918;BME280;63639;52.280;5.162;2023-02-28T03:11:06;103279.38;;;10.07;53.10
73918;BME280;63639;52.280;5.162;2023-02-28T03:14:51;103276.72;;;10.09;53.10
73918;BME280;63639;52.280;5.162;2023-02-28T03:17:33;103276.40;;;10.13;52.89
73918;BME280;63639;52.280;5.162;2023-02-28T03:20:10;103274.56;;;10.15;52.73
73918;BME280;63639;52.280;5.162;2023-02-28T03:22:49;103270.40;;;10.14;52.80
73918;BME280;63639;52.280;5.162;2023-02-28T03:25:21;103266.06;;;10.12;53.00
73918;BME280;63639;52.280;5.162;2023-02-28T03:28:00;103265.02;;;10.11;53.02
73918;BME280;63639;52.280;5.162;2023-02-28T03:30:31;103267.08;;;10.08;52.97
73918;BME280;63639;52.280;5.162;2023-02-28T03:33:05;103265.76;;;10.05;53.26
73918;BME280;63639;52.280;5.162;2023-02-28T03:35:36;103265.18;;;10.06;53.14
73918;BME280;63639;52.280;5.162;2023-02-28T03:38:09;103263.35;;;10.08;53.15
73918;BME280;63639;52.280;5.162;2023-02-28T03:40:37;103267.86;;;10.12;53.19
73918;BME280;63639;52.280;5.162;2023-02-28T03:43:10;103267.89;;;10.15;53.12
73918;BME280;63639;52.280;5.162;2023-02-28T03:45:39;103272.04;;;10.16;53.17
73918;BME280;63639;52.280;5.162;2023-02-28T03:48:12;103276.03;;;10.17;53.36
73918;BME280;63639;52.280;5.162;2023-02-28T03:50:41;103280.81;;;10.17;53.28
73918;BME280;63639;52.280;5.162;2023-02-28T03:53:12;103283.02;;;10.16;53.39
73918;BME280;63639;52.280;5.162;2023-02-28T03:55:44;103278.26;;;10.12;53.04
73918;BME280;63639;52.280;5.162;2023-02-28T03:58:18;103281.71;;;9.99;53.36
73918;BME280;63639;52.280;5.162;2023-02-28T04:00:49;103278.92;;;9.88;53.82
73918;BME280;63639;52.280;5.162;2023-02-28T04:03:17;103274.82;;;9.84;54.04
73918;BME280;63639;52.280;5.162;2023-02-28T04:05:49;103275.53;;;9.80;53.54
73918;BME280;63639;52.280;5.162;2023-02-28T04:08:17;103273.64;;;9.76;52.98
73918;BME280;63639;52.280;5.162;2023-02-28T04:10:56;103273.98;;;9.79;52.36
73918;BME280;63639;52.280;5.162;2023-02-28T04:13:24;103281.66;;;9.83;52.14
73918;BME280;63639;52.280;5.162;2023-02-28T04:15:51;103282.83;;;9.83;52.02
73918;BME280;63639;52.280;5.162;2023-02-28T04:18:18;103286.11;;;9.81;51.59
73918;BME280;63639;52.280;5.162;2023-02-28T04:20:45;103287.15;;;9.79;52.37
73918;BME280;63639;52.280;5.162;2023-02-28T04:23:12;103288.97;;;9.75;52.19
73918;BME280;63639;52.280;5.162;2023-02-28T04:25:39;103286.85;;;9.73;52.65
73918;BME280;63639;52.280;5.162;2023-02-28T04:28:06;103286.01;;;9.65;53.02
73918;BME280;63639;52.280;5.162;2023-02-28T04:30:33;103285.86;;;9.60;53.40
73918;BME280;63639;52.280;5.162;2023-02-28T04:33:00;103289.42;;;9.58;53.87
73918;BME280;63639;52.280;5.162;2023-02-28T04:35:27;103287.21;;;9.50;54.05
73918;BME280;63639;52.280;5.162;2023-02-28T04:37:54;103287.57;;;9.25;54.67
73918;BME280;63639;52.280;5.162;2023-02-28T04:40:21;103285.52;;;9.06;55.24
73918;BME280;63639;52.280;5.162;2023-02-28T04:42:48;103287.16;;;8.86;56.36
73918;BME280;63639;52.280;5.162;2023-02-28T04:45:15;103285.22;;;8.69;57.10
73918;BME280;63639;52.280;5.162;2023-02-28T04:47:41;103283.94;;;8.64;57.21
73918;BME280;63639;52.280;5.162;2023-02-28T04:50:09;103282.91;;;8.57;57.06
73918;BME280;63639;52.280;5.162;2023-02-28T04:52:36;103280.94;;;8.63;57.49
73918;BME280;63639;52.280;5.162;2023-02-28T04:55:03;103283.11;;;8.71;57.64
73918;BME280;63639;52.280;5.162;2023-02-28T04:57:30;103281.59;;;8.74;57.09
73918;BME280;63639;52.280;5.162;2023-02-28T04:59:57;103280.51;;;8.67;56.69
73918;BME280;63639;52.280;5.162;2023-02-28T05:02:24;103275.90;;;8.62;57.02
73918;BME280;63639;52.280;5.162;2023-02-28T05:04:51;103274.03;;;8.64;57.23
73918;BME280;63639;52.280;5.162;2023-02-28T05:07:18;103272.57;;;8.70;57.00
73918;BME280;63639;52.280;5.162;2023-02-28T05:09:45;103275.32;;;8.69;57.36
73918;BME280;63639;52.280;5.162;2023-02-28T05:12:12;103274.95;;;8.73;57.41
73918;BME280;63639;52.280;5.162;2023-02-28T05:14:39;103275.47;;;8.76;57.62
73918;BME280;63639;52.280;5.162;2023-02-28T05:17:06;103277.85;;;8.75;57.58
73918;BME280;63639;52.280;5.162;2023-02-28T05:19:32;103275.24;;;8.72;57.95
73918;BME280;63639;52.280;5.162;2023-02-28T05:21:59;103276.90;;;8.78;57.83
73918;BME280;63639;52.280;5.162;2023-02-28T05:24:26;103279.14;;;8.80;57.78
73918;BME280;63639;52.280;5.162;2023-02-28T05:26:54;103277.40;;;8.75;57.92
73918;BME280;63639;52.280;5.162;2023-02-28T05:29:21;103277.79;;;8.74;58.00
73918;BME280;63639;52.280;5.162;2023-02-28T05:31:53;103283.67;;;8.76;58.28
73918;BME280;63639;52.280;5.162;2023-02-28T05:34:19;103281.96;;;8.74;57.36
73918;BME280;63639;52.280;5.162;2023-02-28T05:36:46;103281.27;;;8.75;57.93
73918;BME280;63639;52.280;5.162;2023-02-28T05:39:13;103283.45;;;8.70;57.50
73918;BME280;63639;52.280;5.162;2023-02-28T05:41:41;103280.77;;;8.70;57.63
73918;BME280;63639;52.280;5.162;2023-02-28T05:44:08;103283.70;;;8.70;56.11
73918;BME280;63639;52.280;5.162;2023-02-28T05:46:35;103286.61;;;8.60;56.84
73918;BME280;63639;52.280;5.162;2023-02-28T05:49:02;103290.90;;;8.48;56.28
73918;BME280;63639;52.280;5.162;2023-02-28T05:51:29;103294.66;;;8.43;56.09
73918;BME280;63639;52.280;5.162;2023-02-28T05:53:59;103298.29;;;8.33;55.92
73918;BME280;63639;52.280;5.162;2023-02-28T05:56:25;103302.43;;;8.03;54.60
73918;BME280;63639;52.280;5.162;2023-02-28T05:58:52;103306.29;;;7.93;55.24
73918;BME280;63639;52.280;5.162;2023-02-28T06:01:23;103303.38;;;7.79;55.27
73918;BME280;63639;52.280;5.162;2023-02-28T06:03:50;103299.75;;;7.74;55.57
73918;BME280;63639;52.280;5.162;2023-02-28T06:06:16;103301.10;;;7.90;55.90
73918;BME280;63639;52.280;5.162;2023-02-28T06:08:43;103304.16;;;8.03;55.78
73918;BME280;63639;52.280;5.162;2023-02-28T06:11:10;103303.60;;;8.09;55.40
73918;BME280;63639;52.280;5.162;2023-02-28T06:13:37;103304.15;;;8.11;54.70
73918;BME280;63639;52.280;5.162;2023-02-28T06:16:05;103307.45;;;8.12;55.16
73918;BME280;63639;52.280;5.162;2023-02-28T06:18:32;103310.38;;;7.99;53.73
73918;BME280;63639;52.280;5.162;2023-02-28T06:20:59;103315.72;;;7.90;55.35
73918;BME280;63639;52.280;5.162;2023-02-28T06:23:26;103317.28;;;7.85;54.78
73918;BME280;63639;52.280;5.162;2023-02-28T06:25:53;103316.13;;;7.80;54.58
73918;BME280;63639;52.280;5.162;2023-02-28T06:28:20;103319.31;;;7.75;55.25
73918;BME280;63639;52.280;5.162;2023-02-28T06:30:47;103323.50;;;7.66;55.90
73918;BME280;63639;52.280;5.162;2023-02-28T06:33:14;103321.55;;;7.52;56.20
73918;BME280;63639;52.280;5.162;2023-02-28T06:35:43;103322.42;;;7.43;57.00
73918;BME280;63639;52.280;5.162;2023-02-28T06:38:10;103319.01;;;7.36;57.36
73918;BME280;63639;52.280;5.162;2023-02-28T06:40:37;103320.69;;;7.35;57.87
73918;BME280;63639;52.280;5.162;2023-02-28T06:43:04;103322.01;;;7.44;57.91
73918;BME280;63639;52.280;5.162;2023-02-28T06:45:31;103325.21;;;7.46;58.00
73918;BME280;63639;52.280;5.162;2023-02-28T06:47:58;103332.82;;;7.44;58.57
73918;BME280;63639;52.280;5.162;2023-02-28T06:50:25;103336.18;;;7.47;59.21
73918;BME280;63639;52.280;5.162;2023-02-28T06:52:51;103333.34;;;7.49;58.82
73918;BME280;63639;52.280;5.162;2023-02-28T06:55:19;103335.58;;;7.51;59.23
73918;BME280;63639;52.280;5.162;2023-02-28T06:57:46;103335.60;;;7.53;59.06
73918;BME280;63639;52.280;5.162;2023-02-28T07:00:14;103334.32;;;7.54;59.39
73918;BME280;63639;52.280;5.162;2023-02-28T07:02:40;103334.30;;;7.55;59.38
73918;BME280;63639;52.280;5.162;2023-02-28T07:05:07;103341.82;;;7.65;58.90
73918;BME280;63639;52.280;5.162;2023-02-28T07:07:34;103349.75;;;7.68;59.26
73918;BME280;63639;52.280;5.162;2023-02-28T07:10:01;103352.47;;;7.70;59.39
73918;BME280;63639;52.280;5.162;2023-02-28T07:12:28;103352.56;;;7.73;59.29
73918;BME280;63639;52.280;5.162;2023-02-28T07:14:55;103355.79;;;7.69;59.09
73918;BME280;63639;52.280;5.162;2023-02-28T07:17:22;103358.94;;;7.73;59.10
73918;BME280;63639;52.280;5.162;2023-02-28T07:19:49;103358.73;;;7.81;59.21
73918;BME280;63639;52.280;5.162;2023-02-28T07:22:16;103360.04;;;7.86;58.76
73918;BME280;63639;52.280;5.162;2023-02-28T07:24:43;103354.50;;;7.89;58.98
73918;BME280;63639;52.280;5.162;2023-02-28T07:27:10;103353.55;;;7.97;58.66
73918;BME280;63639;52.280;5.162;2023-02-28T07:29:37;103360.18;;;8.05;58.64
73918;BME280;63639;52.280;5.162;2023-02-28T07:32:04;103362.65;;;8.13;58.35
73918;BME280;63639;52.280;5.162;2023-02-28T07:34:31;103358.32;;;8.20;58.15
73918;BME280;63639;52.280;5.162;2023-02-28T07:36:58;103353.58;;;8.22;57.68
73918;BME280;63639;52.280;5.162;2023-02-28T07:39:25;103352.40;;;8.22;58.21
73918;BME280;63639;52.280;5.162;2023-02-28T07:41:52;103353.49;;;8.27;57.98
73918;BME280;63639;52.280;5.162;2023-02-28T07:44:20;103353.37;;;8.27;58.24
73918;BME280;63639;52.280;5.162;2023-02-28T07:46:47;103350.65;;;8.29;58.42
73918;BME280;63639;52.280;5.162;2023-02-28T07:49:14;103349.07;;;8.29;58.46
73918;BME280;63639;52.280;5.162;2023-02-28T07:51:42;103341.86;;;8.28;58.74
73918;BME280;63639;52.280;5.162;2023-02-28T07:54:09;103344.96;;;8.27;59.48
73918;BME280;63639;52.280;5.162;2023-02-28T07:56:41;103346.20;;;8.28;59.24
73918;BME280;63639;52.280;5.162;2023-02-28T07:59:07;103344.17;;;8.31;58.36
73918;BME280;63639;52.280;5.162;2023-02-28T08:01:34;103345.52;;;8.27;58.61
73918;BME280;63639;52.280;5.162;2023-02-28T08:04:01;103341.84;;;8.18;59.25
73918;BME280;63639;52.280;5.162;2023-02-28T08:06:28;103342.43;;;8.14;60.27
73918;BME280;63639;52.280;5.162;2023-02-28T08:08:55;103341.79;;;8.23;60.16
73918;BME280;63639;52.280;5.162;2023-02-28T08:11:22;103345.49;;;8.32;60.00
73918;BME280;63639;52.280;5.162;2023-02-28T08:13:49;103348.84;;;8.43;58.94
73918;BME280;63639;52.280;5.162;2023-02-28T08:16:16;103354.45;;;8.41;59.46
73918;BME280;63639;52.280;5.162;2023-02-28T08:18:43;103351.43;;;8.46;59.62
73918;BME280;63639;52.280;5.162;2023-02-28T08:21:10;103346.86;;;8.57;59.37
73918;BME280;63639;52.280;5.162;2023-02-28T08:23:36;103345.28;;;8.68;58.49
73918;BME280;63639;52.280;5.162;2023-02-28T08:26:04;103348.02;;;8.74;58.99
73918;BME280;63639;52.280;5.162;2023-02-28T08:28:31;103347.61;;;8.83;58.25
73918;BME280;63639;52.280;5.162;2023-02-28T08:30:58;103349.13;;;8.86;58.75
73918;BME280;63639;52.280;5.162;2023-02-28T08:33:27;103349.80;;;8.89;58.37
73918;BME280;63639;52.280;5.162;2023-02-28T08:35:54;103343.90;;;8.90;58.71
73918;BME280;63639;52.280;5.162;2023-02-28T08:38:21;103343.44;;;8.95;58.97
73918;BME280;63639;52.280;5.162;2023-02-28T08:40:48;103344.49;;;9.02;58.41
73918;BME280;63639;52.280;5.162;2023-02-28T08:43:15;103346.75;;;9.02;58.23
73918;BME280;63639;52.280;5.162;2023-02-28T08:45:42;103347.86;;;9.03;58.22
73918;BME280;63639;52.280;5.162;2023-02-28T08:48:09;103346.31;;;8.96;58.18
73918;BME280;63639;52.280;5.162;2023-02-28T08:50:35;103345.58;;;8.95;58.96
73918;BME280;63639;52.280;5.162;2023-02-28T08:53:02;103345.48;;;9.04;58.96
73918;BME280;63639;52.280;5.162;2023-02-28T08:55:29;103350.58;;;9.12;58.90
73918;BME280;63639;52.280;5.162;2023-02-28T08:57:56;103346.51;;;9.18;58.55
73918;BME280;63639;52.280;5.162;2023-02-28T09:00:23;103346.03;;;9.26;59.13
73918;BME280;63639;52.280;5.162;2023-02-28T09:02:50;103349.89;;;9.31;58.40
73918;BME280;63639;52.280;5.162;2023-02-28T09:05:17;103349.13;;;9.28;59.00
73918;BME280;63639;52.280;5.162;2023-02-28T09:07:44;103356.96;;;9.31;59.33
73918;BME280;63639;52.280;5.162;2023-02-28T09:10:11;103355.83;;;9.41;59.40
73918;BME280;63639;52.280;5.162;2023-02-28T09:12:38;103357.16;;;9.54;59.19
73918;BME280;63639;52.280;5.162;2023-02-28T09:15:06;103361.98;;;9.44;58.30
73918;BME280;63639;52.280;5.162;2023-02-28T09:17:33;103362.07;;;9.35;58.45
73918;BME280;63639;52.280;5.162;2023-02-28T09:19:59;103363.73;;;9.12;58.38
73918;BME280;63639;52.280;5.162;2023-02-28T09:22:26;103368.94;;;9.04;57.14
73918;BME280;63639;52.280;5.162;2023-02-28T09:24:54;103370.82;;;9.00;58.01
73918;BME280;63639;52.280;5.162;2023-02-28T09:27:20;103368.82;;;8.97;58.14
73918;BME280;63639;52.280;5.162;2023-02-28T09:29:47;103366.59;;;8.93;57.65
73918;BME280;63639;52.280;5.162;2023-02-28T09:32:14;103370.73;;;8.79;57.15
73918;BME280;63639;52.280;5.162;2023-02-28T09:34:41;103371.78;;;8.78;56.81
73918;BME280;63639;52.280;5.162;2023-02-28T09:37:08;103370.74;;;8.77;56.21
73918;BME280;63639;52.280;5.162;2023-02-28T09:39:35;103371.49;;;8.77;54.30
73918;BME280;63639;52.280;5.162;2023-02-28T09:42:02;103369.52;;;8.74;55.04
73918;BME280;63639;52.280;5.162;2023-02-28T09:44:33;103366.34;;;8.77;53.98
73918;BME280;63639;52.280;5.162;2023-02-28T09:47:12;103367.77;;;8.82;53.62
73918;BME280;63639;52.280;5.162;2023-02-28T09:49:42;103370.50;;;8.88;54.27
73918;BME280;63639;52.280;5.162;2023-02-28T09:52:13;103372.61;;;8.91;54.32
73918;BME280;63639;52.280;5.162;2023-02-28T09:54:40;103377.30;;;8.87;53.85
73918;BME280;63639;52.280;5.162;2023-02-28T09:57:12;103373.57;;;8.95;53.46
73918;BME280;63639;52.280;5.162;2023-02-28T09:59:50;103373.77;;;8.99;52.71
73918;BME280;63639;52.280;5.162;2023-02-28T10:02:54;103369.70;;;9.14;52.67
73918;BME280;63639;52.280;5.162;2023-02-28T10:05:29;103371.70;;;9.23;51.42
73918;BME280;63639;52.280;5.162;2023-02-28T10:08:03;103367.82;;;9.21;51.03
73918;BME280;63639;52.280;5.162;2023-02-28T10:10:36;103370.26;;;9.17;50.32
73918;BME280;63639;52.280;5.162;2023-02-28T10:13:06;103373.39;;;9.24;49.53
73918;BME280;63639;52.280;5.162;2023-02-28T10:15:34;103370.42;;;9.29;49.09
73918;BME280;63639;52.280;5.162;2023-02-28T10:18:04;103373.91;;;9.36;50.12
73918;BME280;63639;52.280;5.162;2023-02-28T10:20:41;103372.28;;;9.20;48.49
73918;BME280;63639;52.280;5.162;2023-02-28T10:23:14;103371.08;;;9.16;48.69
73918;BME280;63639;52.280;5.162;2023-02-28T10:25:45;103373.67;;;9.34;47.65
73918;BME280;63639;52.280;5.162;2023-02-28T10:28:16;103369.05;;;9.62;46.93
73918;BME280;63639;52.280;5.162;2023-02-28T10:30:46;103367.30;;;9.85;45.95
73918;BME280;63639;52.280;5.162;2023-02-28T10:33:19;103368.44;;;10.00;46.30
73918;BME280;63639;52.280;5.162;2023-02-28T10:35:48;103364.53;;;10.22;45.11
73918;BME280;63639;52.280;5.162;2023-02-28T10:38:18;103365.29;;;10.35;44.52
73918;BME280;63639;52.280;5.162;2023-02-28T10:40:45;103365.94;;;10.30;43.74
73918;BME280;63639;52.280;5.162;2023-02-28T10:43:21;103363.09;;;10.28;43.93
73918;BME280;63639;52.280;5.162;2023-02-28T10:45:55;103356.43;;;10.33;43.26
73918;BME280;63639;52.280;5.162;2023-02-28T10:48:30;103356.62;;;10.36;43.23
73918;BME280;63639;52.280;5.162;2023-02-28T10:50:59;103352.36;;;10.52;44.20
73918;BME280;63639;52.280;5.162;2023-02-28T10:53:34;103353.40;;;10.66;44.85
73918;BME280;63639;52.280;5.162;2023-02-28T10:56:03;103350.40;;;10.67;42.28
73918;BME280;63639;52.280;5.162;2023-02-28T10:58:42;103348.76;;;10.85;42.93
73918;BME280;63639;52.280;5.162;2023-02-28T11:01:14;103344.36;;;11.03;42.16
73918;BME280;63639;52.280;5.162;2023-02-28T11:03:40;103346.15;;;11.05;40.24
73918;BME280;63639;52.280;5.162;2023-02-28T11:06:14;103341.39;;;11.02;37.03
73918;BME280;63639;52.280;5.162;2023-02-28T11:08:47;103337.93;;;10.70;36.78
73918;BME280;63639;52.280;5.162;2023-02-28T11:11:15;103336.70;;;10.76;36.69
73918;BME280;63639;52.280;5.162;2023-02-28T11:13:43;103337.44;;;10.83;36.53
73918;BME280;63639;52.280;5.162;2023-02-28T11:16:12;103336.13;;;10.91;36.77
73918;BME280;63639;52.280;5.162;2023-02-28T11:18:42;103326.68;;;11.09;38.44
73918;BME280;63639;52.280;5.162;2023-02-28T11:21:16;103325.65;;;10.91;37.96
73918;BME280;63639;52.280;5.162;2023-02-28T11:23:45;103318.31;;;11.18;37.02
73918;BME280;63639;52.280;5.162;2023-02-28T11:26:36;103321.99;;;11.36;36.28
73918;BME280;63639;52.280;5.162;2023-02-28T11:29:12;103322.07;;;11.72;35.50
73918;BME280;63639;52.280;5.162;2023-02-28T11:31:42;103315.21;;;11.76;34.41
73918;BME280;63639;52.280;5.162;2023-02-28T11:34:26;103310.90;;;11.79;34.67
73918;BME280;63639;52.280;5.162;2023-02-28T11:36:55;103309.71;;;12.02;34.28
73918;BME280;63639;52.280;5.162;2023-02-28T11:39:24;103305.16;;;12.04;33.97
73918;BME280;63639;52.280;5.162;2023-02-28T11:42:03;103301.52;;;12.16;34.98
73918;BME280;63639;52.280;5.162;2023-02-28T11:44:43;103301.27;;;12.26;34.74
73918;BME280;63639;52.280;5.162;2023-02-28T11:47:19;103298.82;;;12.37;34.12
73918;BME280;63639;52.280;5.162;2023-02-28T11:49:57;103300.97;;;12.18;34.53
73918;BME280;63639;52.280;5.162;2023-02-28T11:52:35;103294.10;;;12.47;35.35
73918;BME280;63639;52.280;5.162;2023-02-28T11:55:14;103288.64;;;12.91;34.64
73918;BME280;63639;52.280;5.162;2023-02-28T11:57:55;103285.16;;;12.94;34.29
73918;BME280;63639;52.280;5.162;2023-02-28T12:00:35;103282.92;;;12.80;34.00
73918;BME280;63639;52.280;5.162;2023-02-28T12:03:14;103277.97;;;12.81;33.68
73918;BME280;63639;52.280;5.162;2023-02-28T12:05:45;103284.62;;;12.65;33.73
73918;BME280;63639;52.280;5.162;2023-02-28T12:08:26;103284.60;;;12.62;34.17
73918;BME280;63639;52.280;5.162;2023-02-28T12:11:06;103274.86;;;12.80;33.51
73918;BME280;63639;52.280;5.162;2023-02-28T12:13:48;103272.59;;;13.02;32.43
73918;BME280;63639;52.280;5.162;2023-02-28T12:16:33;103272.53;;;13.23;33.80
73918;BME280;63639;52.280;5.162;2023-02-28T12:19:13;103268.86;;;13.58;33.35
73918;BME280;63639;52.280;5.162;2023-02-28T12:21:57;103269.63;;;13.61;32.39
73918;BME280;63639;52.280;5.162;2023-02-28T12:24:39;103271.96;;;13.72;33.22
73918;BME280;63639;52.280;5.162;2023-02-28T12:27:11;103267.54;;;13.70;32.09
73918;BME280;63639;52.280;5.162;2023-02-28T12:29:45;103271.83;;;13.44;33.15
73918;BME280;63639;52.280;5.162;2023-02-28T12:32:18;103266.49;;;13.56;31.72
73918;BME280;63639;52.280;5.162;2023-02-28T12:34:49;103260.38;;;13.47;33.23
73918;BME280;63639;52.280;5.162;2023-02-28T12:37:19;103259.77;;;13.46;32.49
73918;BME280;63639;52.280;5.162;2023-02-28T12:39:51;103258.58;;;13.17;33.47
73918;BME280;63639;52.280;5.162;2023-02-28T12:42:26;103253.97;;;13.31;32.75
73918;BME280;63639;52.280;5.162;2023-02-28T12:44:59;103252.32;;;13.27;32.34
73918;BME280;63639;52.280;5.162;2023-02-28T12:47:27;103253.73;;;13.08;32.64
73918;BME280;63639;52.280;5.162;2023-02-28T12:49:58;103248.74;;;13.07;32.75
73918;BME280;63639;52.280;5.162;2023-02-28T12:52:40;103249.96;;;12.90;32.58
73918;BME280;63639;52.280;5.162;2023-02-28T12:55:15;103255.12;;;12.82;32.35
73918;BME280;63639;52.280;5.162;2023-02-28T12:57:51;103248.45;;;12.89;33.62
73918;BME280;63639;52.280;5.162;2023-02-28T13:00:25;103244.06;;;12.95;32.82
73918;BME280;63639;52.280;5.162;2023-02-28T13:03:12;103246.04;;;13.06;33.11
73918;BME280;63639;52.280;5.162;2023-02-28T13:06:28;103243.82;;;13.31;31.52
73918;BME280;63639;52.280;5.162;2023-02-28T13:09:11;103243.43;;;13.47;32.82
73918;BME280;63639;52.280;5.162;2023-02-28T13:11:40;103236.67;;;13.37;31.91
73918;BME280;63639;52.280;5.162;2023-02-28T13:14:19;103235.95;;;13.52;32.01